sensor_id;sensor_type;location;lat;lon;timestamp;P1;durP1;ratioP1;P2;durP2;ratioP2
36233;SDS011;43467;50.890;5.982;2022-12-29T00:01:24;0.80;;;0.60;;
36233;SDS011;43467;50.890;5.982;2022-12-29T00:03:50;0.88;;;0.63;;
36233;SDS011;43467;50.890;5.982;2022-12-29T00:06:15;0.80;;;0.80;;
36233;SDS011;43467;50.890;5.982;2022-12-29T00:08:40;0.80;;;0.68;;
36233;SDS011;43467;50.890;5.982;2022-12-29T00:11:09;0.88;;;0.68;;
36233;SDS011;43467;50.890;5.982;2022-12-29T00:13:40;0.57;;;0.57;;
36233;SDS011;43467;50.890;5.982;2022-12-29T00:16:25;1.83;;;0.70;;
36233;SDS011;43467;50.890;5.982;2022-12-29T00:18:51;1.35;;;0.80;;
36233;SDS011;43467;50.890;5.982;2022-12-29T00:21:17;0.60;;;0.60;;
36233;SDS011;43467;50.890;5.982;2022-12-29T00:24:04;0.50;;;0.50;;
36233;SDS011;43467;50.890;5.982;2022-12-29T00:26:50;1.00;;;0.90;;
36233;SDS011;43467;50.890;5.982;2022-12-29T00:29:40;0.85;;;0.57;;
36233;SDS011;43467;50.890;5.982;2022-12-29T00:32:24;1.40;;;0.70;;
36233;SDS011;43467;50.890;5.982;2022-12-29T00:35:09;0.82;;;0.60;;
36233;SDS011;43467;50.890;5.982;2022-12-29T00:37:40;1.05;;;0.50;;
36233;SDS011;43467;50.890;5.982;2022-12-29T00:40:27;1.92;;;0.65;;
36233;SDS011;43467;50.890;5.982;2022-12-29T00:43:11;0.70;;;0.60;;
36233;SDS011;43467;50.890;5.982;2022-12-29T00:45:55;0.75;;;0.60;;
36233;SDS011;43467;50.890;5.982;2022-12-29T00:48:20;0.68;;;0.50;;
36233;SDS011;43467;50.890;5.982;2022-12-29T00:51:06;2.83;;;0.60;;
36233;SDS011;43467;50.890;5.982;2022-12-29T00:53:32;1.10;;;0.60;;
36233;SDS011;43467;50.890;5.982;2022-12-29T00:55:58;1.10;;;0.70;;
36233;SDS011;43467;50.890;5.982;2022-12-29T00:58:23;2.22;;;0.60;;
36233;SDS011;43467;50.890;5.982;2022-12-29T01:00:51;1.83;;;0.60;;
36233;SDS011;43467;50.890;5.982;2022-12-29T01:03:16;1.00;;;0.80;;
36233;SDS011;43467;50.890;5.982;2022-12-29T01:05:42;2.15;;;0.65;;
36233;SDS011;43467;50.890;5.982;2022-12-29T01:08:08;1.40;;;0.70;;
36233;SDS011;43467;50.890;5.982;2022-12-29T01:10:33;0.70;;;0.70;;
36233;SDS011;43467;50.890;5.982;2022-12-29T01:12:59;1.25;;;0.80;;
36233;SDS011;43467;50.890;5.982;2022-12-29T01:15:24;0.95;;;0.70;;
36233;SDS011;43467;50.890;5.982;2022-12-29T01:17:49;3.05;;;1.10;;
36233;SDS011;43467;50.890;5.982;2022-12-29T01:20:15;1.90;;;0.90;;
36233;SDS011;43467;50.890;5.982;2022-12-29T01:22:40;2.05;;;1.00;;
36233;SDS011;43467;50.890;5.982;2022-12-29T01:25:07;2.67;;;0.85;;
36233;SDS011;43467;50.890;5.982;2022-12-29T01:27:32;1.67;;;0.90;;
36233;SDS011;43467;50.890;5.982;2022-12-29T01:29:58;1.05;;;0.80;;
36233;SDS011;43467;50.890;5.982;2022-12-29T01:32:23;3.05;;;0.75;;
36233;SDS011;43467;50.890;5.982;2022-12-29T01:34:49;1.58;;;0.70;;
36233;SDS011;43467;50.890;5.982;2022-12-29T01:37:14;1.70;;;0.80;;
36233;SDS011;43467;50.890;5.982;2022-12-29T01:39:40;1.30;;;0.80;;
36233;SDS011;43467;50.890;5.982;2022-12-29T01:42:05;1.20;;;0.80;;
36233;SDS011;43467;50.890;5.982;2022-12-29T01:44:59;3.53;;;1.00;;
36233;SDS011;43467;50.890;5.982;2022-12-29T01:47:37;1.63;;;0.77;;
36233;SDS011;43467;50.890;5.982;2022-12-29T01:50:22;1.42;;;0.85;;
36233;SDS011;43467;50.890;5.982;2022-12-29T01:52:57;2.20;;;1.00;;
36233;SDS011;43467;50.890;5.982;2022-12-29T01:55:27;3.63;;;1.00;;
36233;SDS011;43467;50.890;5.982;2022-12-29T01:57:56;2.72;;;1.10;;
36233;SDS011;43467;50.890;5.982;2022-12-29T02:00:26;2.75;;;1.30;;
36233;SDS011;43467;50.890;5.982;2022-12-29T02:02:52;3.05;;;1.38;;
36233;SDS011;43467;50.890;5.982;2022-12-29T02:05:24;1.70;;;0.93;;
36233;SDS011;43467;50.890;5.982;2022-12-29T02:07:51;2.15;;;0.77;;
36233;SDS011;43467;50.890;5.982;2022-12-29T02:10:19;3.28;;;1.05;;
36233;SDS011;43467;50.890;5.982;2022-12-29T02:12:46;3.95;;;1.17;;
36233;SDS011;43467;50.890;5.982;2022-12-29T02:15:11;4.00;;;1.10;;
36233;SDS011;43467;50.890;5.982;2022-12-29T02:23:38;5.03;;;1.10;;
36233;SDS011;43467;50.890;5.982;2022-12-29T02:29:11;1.88;;;1.00;;
36233;SDS011;43467;50.890;5.982;2022-12-29T02:31:58;1.58;;;1.10;;
36233;SDS011;43467;50.890;5.982;2022-12-29T02:37:28;1.63;;;0.90;;
36233;SDS011;43467;50.890;5.982;2022-12-29T02:40:08;2.70;;;0.98;;
36233;SDS011;43467;50.890;5.982;2022-12-29T02:50:36;1.17;;;0.90;;
36233;SDS011;43467;50.890;5.982;2022-12-29T02:53:05;3.90;;;0.90;;
36233;SDS011;43467;50.890;5.982;2022-12-29T02:55:34;1.52;;;0.90;;
36233;SDS011;43467;50.890;5.982;2022-12-29T03:00:34;1.67;;;0.77;;
36233;SDS011;43467;50.890;5.982;2022-12-29T03:11:10;1.98;;;0.77;;
36233;SDS011;43467;50.890;5.982;2022-12-29T03:13:59;1.75;;;0.70;;
36233;SDS011;43467;50.890;5.982;2022-12-29T03:16:52;3.03;;;0.63;;
36233;SDS011;43467;50.890;5.982;2022-12-29T03:19:30;3.50;;;0.82;;
36233;SDS011;43467;50.890;5.982;2022-12-29T03:22:02;1.17;;;0.80;;
36233;SDS011;43467;50.890;5.982;2022-12-29T03:24:50;2.10;;;0.90;;
36233;SDS011;43467;50.890;5.982;2022-12-29T03:27:19;1.10;;;0.73;;
36233;SDS011;43467;50.890;5.982;2022-12-29T03:29:53;1.67;;;1.00;;
36233;SDS011;43467;50.890;5.982;2022-12-29T03:32:23;3.58;;;1.00;;
36233;SDS011;43467;50.890;5.982;2022-12-29T03:34:53;1.33;;;1.00;;
36233;SDS011;43467;50.890;5.982;2022-12-29T03:37:23;4.20;;;0.90;;
36233;SDS011;43467;50.890;5.982;2022-12-29T03:39:53;1.00;;;0.80;;
36233;SDS011;43467;50.890;5.982;2022-12-29T03:42:21;2.33;;;0.70;;
36233;SDS011;43467;50.890;5.982;2022-12-29T03:44:56;2.05;;;0.85;;
36233;SDS011;43467;50.890;5.982;2022-12-29T03:47:22;3.53;;;0.90;;
36233;SDS011;43467;50.890;5.982;2022-12-29T03:49:48;3.67;;;1.20;;
36233;SDS011;43467;50.890;5.982;2022-12-29T03:52:15;2.00;;;0.80;;
36233;SDS011;43467;50.890;5.982;2022-12-29T03:54:40;2.08;;;1.15;;
36233;SDS011;43467;50.890;5.982;2022-12-29T03:57:06;3.55;;;1.05;;
36233;SDS011;43467;50.890;5.982;2022-12-29T03:59:31;3.13;;;0.82;;
36233;SDS011;43467;50.890;5.982;2022-12-29T04:01:57;2.80;;;0.93;;
36233;SDS011;43467;50.890;5.982;2022-12-29T04:04:22;2.65;;;1.10;;
36233;SDS011;43467;50.890;5.982;2022-12-29T04:06:47;2.20;;;1.10;;
36233;SDS011;43467;50.890;5.982;2022-12-29T04:09:13;2.28;;;0.82;;
36233;SDS011;43467;50.890;5.982;2022-12-29T04:11:38;2.90;;;1.00;;
36233;SDS011;43467;50.890;5.982;2022-12-29T04:14:04;2.53;;;1.00;;
36233;SDS011;43467;50.890;5.982;2022-12-29T04:16:29;4.47;;;1.25;;
36233;SDS011;43467;50.890;5.982;2022-12-29T04:18:54;1.13;;;0.70;;
36233;SDS011;43467;50.890;5.982;2022-12-29T04:21:20;2.63;;;0.90;;
36233;SDS011;43467;50.890;5.982;2022-12-29T04:23:45;2.85;;;1.10;;
36233;SDS011;43467;50.890;5.982;2022-12-29T04:26:11;2.35;;;0.95;;
36233;SDS011;43467;50.890;5.982;2022-12-29T04:28:36;1.70;;;1.13;;
36233;SDS011;43467;50.890;5.982;2022-12-29T04:31:02;2.42;;;1.00;;
36233;SDS011;43467;50.890;5.982;2022-12-29T04:33:28;1.88;;;0.90;;
36233;SDS011;43467;50.890;5.982;2022-12-29T04:35:54;3.78;;;1.20;;
36233;SDS011;43467;50.890;5.982;2022-12-29T04:38:20;3.55;;;1.00;;
36233;SDS011;43467;50.890;5.982;2022-12-29T04:40:47;3.78;;;1.33;;
36233;SDS011;43467;50.890;5.982;2022-12-29T04:43:13;2.00;;;1.00;;
36233;SDS011;43467;50.890;5.982;2022-12-29T04:45:42;2.65;;;1.02;;
36233;SDS011;43467;50.890;5.982;2022-12-29T04:48:08;4.00;;;0.90;;
36233;SDS011;43467;50.890;5.982;2022-12-29T04:50:34;4.32;;;1.30;;
36233;SDS011;43467;50.890;5.982;2022-12-29T04:52:59;2.97;;;0.98;;
36233;SDS011;43467;50.890;5.982;2022-12-29T04:55:25;3.47;;;0.90;;
36233;SDS011;43467;50.890;5.982;2022-12-29T04:57:50;2.35;;;0.80;;
36233;SDS011;43467;50.890;5.982;2022-12-29T05:00:15;2.55;;;1.08;;
36233;SDS011;43467;50.890;5.982;2022-12-29T05:02:41;2.97;;;0.95;;
36233;SDS011;43467;50.890;5.982;2022-12-29T05:05:06;2.03;;;0.80;;
36233;SDS011;43467;50.890;5.982;2022-12-29T05:07:32;2.05;;;0.85;;
36233;SDS011;43467;50.890;5.982;2022-12-29T05:09:58;4.05;;;1.00;;
36233;SDS011;43467;50.890;5.982;2022-12-29T05:12:24;2.22;;;1.00;;
36233;SDS011;43467;50.890;5.982;2022-12-29T05:14:49;3.67;;;0.82;;
36233;SDS011;43467;50.890;5.982;2022-12-29T05:17:15;2.47;;;1.02;;
36233;SDS011;43467;50.890;5.982;2022-12-29T05:19:40;2.88;;;0.98;;
36233;SDS011;43467;50.890;5.982;2022-12-29T05:22:05;3.33;;;0.93;;
36233;SDS011;43467;50.890;5.982;2022-12-29T05:24:31;1.60;;;0.80;;
36233;SDS011;43467;50.890;5.982;2022-12-29T05:26:56;5.32;;;1.25;;
36233;SDS011;43467;50.890;5.982;2022-12-29T05:29:21;3.35;;;0.98;;
36233;SDS011;43467;50.890;5.982;2022-12-29T05:31:47;1.67;;;0.80;;
36233;SDS011;43467;50.890;5.982;2022-12-29T05:34:12;3.83;;;1.10;;
36233;SDS011;43467;50.890;5.982;2022-12-29T05:36:38;2.00;;;0.90;;
36233;SDS011;43467;50.890;5.982;2022-12-29T05:39:04;4.28;;;0.93;;
36233;SDS011;43467;50.890;5.982;2022-12-29T05:41:30;2.88;;;0.80;;
36233;SDS011;43467;50.890;5.982;2022-12-29T05:43:55;3.65;;;1.35;;
36233;SDS011;43467;50.890;5.982;2022-12-29T05:46:21;2.20;;;0.95;;
36233;SDS011;43467;50.890;5.982;2022-12-29T05:48:46;2.33;;;0.90;;
36233;SDS011;43467;50.890;5.982;2022-12-29T05:51:11;4.15;;;0.93;;
36233;SDS011;43467;50.890;5.982;2022-12-29T05:53:37;5.68;;;1.27;;
36233;SDS011;43467;50.890;5.982;2022-12-29T05:56:02;1.73;;;0.77;;
36233;SDS011;43467;50.890;5.982;2022-12-29T05:58:28;3.35;;;0.93;;
36233;SDS011;43467;50.890;5.982;2022-12-29T06:00:53;2.45;;;1.10;;
36233;SDS011;43467;50.890;5.982;2022-12-29T06:03:19;4.00;;;1.17;;
36233;SDS011;43467;50.890;5.982;2022-12-29T06:05:44;3.90;;;1.20;;
36233;SDS011;43467;50.890;5.982;2022-12-29T06:08:11;3.33;;;0.90;;
36233;SDS011;43467;50.890;5.982;2022-12-29T06:10:36;4.38;;;1.08;;
36233;SDS011;43467;50.890;5.982;2022-12-29T06:13:02;4.50;;;1.17;;
36233;SDS011;43467;50.890;5.982;2022-12-29T06:15:30;5.10;;;1.27;;
36233;SDS011;43467;50.890;5.982;2022-12-29T06:17:56;5.18;;;1.13;;
36233;SDS011;43467;50.890;5.982;2022-12-29T06:20:21;5.75;;;1.00;;
36233;SDS011;43467;50.890;5.982;2022-12-29T06:22:47;2.80;;;1.08;;
36233;SDS011;43467;50.890;5.982;2022-12-29T06:25:12;2.42;;;1.17;;
36233;SDS011;43467;50.890;5.982;2022-12-29T06:27:38;5.20;;;1.10;;
36233;SDS011;43467;50.890;5.982;2022-12-29T06:30:03;6.43;;;1.48;;
36233;SDS011;43467;50.890;5.982;2022-12-29T06:32:28;1.58;;;0.80;;
36233;SDS011;43467;50.890;5.982;2022-12-29T06:34:54;4.57;;;1.05;;
36233;SDS011;43467;50.890;5.982;2022-12-29T06:37:19;3.17;;;1.05;;
36233;SDS011;43467;50.890;5.982;2022-12-29T06:39:45;5.63;;;1.00;;
36233;SDS011;43467;50.890;5.982;2022-12-29T06:42:10;6.10;;;1.15;;
36233;SDS011;43467;50.890;5.982;2022-12-29T06:44:35;4.72;;;1.00;;
36233;SDS011;43467;50.890;5.982;2022-12-29T06:47:01;5.40;;;1.17;;
36233;SDS011;43467;50.890;5.982;2022-12-29T06:49:26;4.00;;;1.20;;
36233;SDS011;43467;50.890;5.982;2022-12-29T06:51:51;3.22;;;1.33;;
36233;SDS011;43467;50.890;5.982;2022-12-29T06:54:17;6.60;;;1.58;;
36233;SDS011;43467;50.890;5.982;2022-12-29T06:56:43;4.53;;;1.20;;
36233;SDS011;43467;50.890;5.982;2022-12-29T06:59:09;6.65;;;1.52;;
36233;SDS011;43467;50.890;5.982;2022-12-29T07:01:34;5.65;;;1.33;;
36233;SDS011;43467;50.890;5.982;2022-12-29T07:04:01;4.53;;;1.20;;
36233;SDS011;43467;50.890;5.982;2022-12-29T07:06:27;3.83;;;1.20;;
36233;SDS011;43467;50.890;5.982;2022-12-29T07:08:52;3.75;;;1.90;;
36233;SDS011;43467;50.890;5.982;2022-12-29T07:11:20;3.80;;;1.50;;
36233;SDS011;43467;50.890;5.982;2022-12-29T07:13:45;6.40;;;1.30;;
36233;SDS011;43467;50.890;5.982;2022-12-29T07:16:11;8.73;;;1.48;;
36233;SDS011;43467;50.890;5.982;2022-12-29T07:18:36;6.57;;;1.55;;
36233;SDS011;43467;50.890;5.982;2022-12-29T07:21:02;4.72;;;1.50;;
36233;SDS011;43467;50.890;5.982;2022-12-29T07:23:28;6.50;;;1.50;;
36233;SDS011;43467;50.890;5.982;2022-12-29T07:26:04;3.85;;;1.58;;
36233;SDS011;43467;50.890;5.982;2022-12-29T07:28:31;5.65;;;1.45;;
36233;SDS011;43467;50.890;5.982;2022-12-29T07:30:59;4.50;;;1.40;;
36233;SDS011;43467;50.890;5.982;2022-12-29T07:33:25;4.97;;;1.42;;
36233;SDS011;43467;50.890;5.982;2022-12-29T07:35:53;7.65;;;1.65;;
36233;SDS011;43467;50.890;5.982;2022-12-29T07:38:18;5.00;;;1.58;;
36233;SDS011;43467;50.890;5.982;2022-12-29T07:40:43;6.10;;;1.80;;
36233;SDS011;43467;50.890;5.982;2022-12-29T07:43:09;4.30;;;1.50;;
36233;SDS011;43467;50.890;5.982;2022-12-29T07:45:34;5.35;;;1.88;;
36233;SDS011;43467;50.890;5.982;2022-12-29T07:47:59;6.88;;;1.55;;
36233;SDS011;43467;50.890;5.982;2022-12-29T07:50:27;9.18;;;2.17;;
36233;SDS011;43467;50.890;5.982;2022-12-29T07:52:53;7.30;;;1.67;;
36233;SDS011;43467;50.890;5.982;2022-12-29T07:55:18;4.88;;;1.48;;
36233;SDS011;43467;50.890;5.982;2022-12-29T07:57:43;8.27;;;1.85;;
36233;SDS011;43467;50.890;5.982;2022-12-29T08:00:09;6.22;;;1.52;;
36233;SDS011;43467;50.890;5.982;2022-12-29T08:02:35;7.25;;;1.35;;
36233;SDS011;43467;50.890;5.982;2022-12-29T08:05:01;6.57;;;1.52;;
36233;SDS011;43467;50.890;5.982;2022-12-29T08:07:26;8.02;;;1.88;;
36233;SDS011;43467;50.890;5.982;2022-12-29T08:09:52;6.28;;;1.42;;
36233;SDS011;43467;50.890;5.982;2022-12-29T08:12:17;5.63;;;1.80;;
36233;SDS011;43467;50.890;5.982;2022-12-29T08:14:43;5.38;;;1.58;;
36233;SDS011;43467;50.890;5.982;2022-12-29T08:17:08;9.93;;;1.90;;
36233;SDS011;43467;50.890;5.982;2022-12-29T08:19:34;8.50;;;1.60;;
36233;SDS011;43467;50.890;5.982;2022-12-29T08:22:00;7.93;;;1.98;;
36233;SDS011;43467;50.890;5.982;2022-12-29T08:24:26;4.88;;;1.48;;
36233;SDS011;43467;50.890;5.982;2022-12-29T08:26:51;7.40;;;1.85;;
36233;SDS011;43467;50.890;5.982;2022-12-29T08:29:17;6.43;;;1.33;;
36233;SDS011;43467;50.890;5.982;2022-12-29T08:31:42;6.90;;;2.17;;
36233;SDS011;43467;50.890;5.982;2022-12-29T08:34:08;10.15;;;2.08;;
36233;SDS011;43467;50.890;5.982;2022-12-29T08:36:33;6.65;;;1.50;;
36233;SDS011;43467;50.890;5.982;2022-12-29T08:38:59;8.95;;;1.58;;
36233;SDS011;43467;50.890;5.982;2022-12-29T08:41:24;10.48;;;1.95;;
36233;SDS011;43467;50.890;5.982;2022-12-29T08:43:49;5.55;;;1.48;;
36233;SDS011;43467;50.890;5.982;2022-12-29T08:46:15;8.18;;;2.10;;
36233;SDS011;43467;50.890;5.982;2022-12-29T08:48:41;8.52;;;1.92;;
36233;SDS011;43467;50.890;5.982;2022-12-29T08:51:07;5.65;;;1.50;;
36233;SDS011;43467;50.890;5.982;2022-12-29T08:53:33;6.15;;;1.60;;
36233;SDS011;43467;50.890;5.982;2022-12-29T08:55:59;6.68;;;1.73;;
36233;SDS011;43467;50.890;5.982;2022-12-29T08:58:26;11.93;;;2.00;;
36233;SDS011;43467;50.890;5.982;2022-12-29T09:00:52;7.85;;;2.20;;
36233;SDS011;43467;50.890;5.982;2022-12-29T09:03:18;5.47;;;1.63;;
36233;SDS011;43467;50.890;5.982;2022-12-29T09:05:47;10.88;;;2.10;;
36233;SDS011;43467;50.890;5.982;2022-12-29T09:08:17;7.95;;;1.80;;
36233;SDS011;43467;50.890;5.982;2022-12-29T09:10:43;7.93;;;1.83;;
36233;SDS011;43467;50.890;5.982;2022-12-29T09:13:09;8.57;;;2.00;;
36233;SDS011;43467;50.890;5.982;2022-12-29T09:15:35;7.97;;;2.17;;
36233;SDS011;43467;50.890;5.982;2022-12-29T09:18:00;6.50;;;1.67;;
36233;SDS011;43467;50.890;5.982;2022-12-29T09:20:26;9.95;;;2.22;;
36233;SDS011;43467;50.890;5.982;2022-12-29T09:22:51;6.90;;;1.83;;
36233;SDS011;43467;50.890;5.982;2022-12-29T09:25:16;8.15;;;1.95;;
36233;SDS011;43467;50.890;5.982;2022-12-29T09:27:42;12.13;;;2.13;;
36233;SDS011;43467;50.890;5.982;2022-12-29T09:30:08;7.15;;;1.98;;
36233;SDS011;43467;50.890;5.982;2022-12-29T09:32:35;5.95;;;1.77;;
36233;SDS011;43467;50.890;5.982;2022-12-29T09:35:01;6.40;;;2.38;;
36233;SDS011;43467;50.890;5.982;2022-12-29T09:37:26;8.00;;;2.22;;
36233;SDS011;43467;50.890;5.982;2022-12-29T09:39:52;12.07;;;2.35;;
36233;SDS011;43467;50.890;5.982;2022-12-29T09:42:29;9.40;;;1.88;;
36233;SDS011;43467;50.890;5.982;2022-12-29T09:47:37;6.75;;;2.20;;
36233;SDS011;43467;50.890;5.982;2022-12-29T09:50:05;6.47;;;1.42;;
36233;SDS011;43467;50.890;5.982;2022-12-29T09:52:44;11.57;;;2.28;;
36233;SDS011;43467;50.890;5.982;2022-12-29T09:55:17;9.60;;;2.00;;
36233;SDS011;43467;50.890;5.982;2022-12-29T09:57:47;11.80;;;1.70;;
36233;SDS011;43467;50.890;5.982;2022-12-29T10:00:20;7.20;;;1.90;;
36233;SDS011;43467;50.890;5.982;2022-12-29T10:05:39;7.20;;;1.98;;
36233;SDS011;43467;50.890;5.982;2022-12-29T10:24:53;10.68;;;2.38;;
36233;SDS011;43467;50.890;5.982;2022-12-29T10:27:21;9.15;;;2.03;;
36233;SDS011;43467;50.890;5.982;2022-12-29T10:29:50;4.30;;;1.50;;
36233;SDS011;43467;50.890;5.982;2022-12-29T10:34:55;9.82;;;1.90;;
36233;SDS011;43467;50.890;5.982;2022-12-29T10:39:58;11.07;;;2.70;;
36233;SDS011;43467;50.890;5.982;2022-12-29T10:42:28;12.10;;;2.90;;
36233;SDS011;43467;50.890;5.982;2022-12-29T10:45:01;7.65;;;2.20;;
36233;SDS011;43467;50.890;5.982;2022-12-29T10:47:29;8.13;;;2.58;;
36233;SDS011;43467;50.890;5.982;2022-12-29T10:50:01;9.15;;;2.33;;
36233;SDS011;43467;50.890;5.982;2022-12-29T10:52:28;11.23;;;2.03;;
36233;SDS011;43467;50.890;5.982;2022-12-29T10:54:56;8.88;;;2.22;;
36233;SDS011;43467;50.890;5.982;2022-12-29T10:57:32;8.02;;;2.15;;
36233;SDS011;43467;50.890;5.982;2022-12-29T11:00:00;15.50;;;2.40;;
36233;SDS011;43467;50.890;5.982;2022-12-29T11:02:51;12.48;;;2.13;;
36233;SDS011;43467;50.890;5.982;2022-12-29T11:05:27;10.23;;;2.08;;
36233;SDS011;43467;50.890;5.982;2022-12-29T11:08:04;13.15;;;2.40;;
36233;SDS011;43467;50.890;5.982;2022-12-29T11:10:37;10.90;;;2.08;;
36233;SDS011;43467;50.890;5.982;2022-12-29T11:13:13;11.35;;;1.92;;
36233;SDS011;43467;50.890;5.982;2022-12-29T11:15:48;13.48;;;2.72;;
36233;SDS011;43467;50.890;5.982;2022-12-29T11:18:22;9.80;;;2.10;;
36233;SDS011;43467;50.890;5.982;2022-12-29T11:20:59;8.30;;;2.38;;
36233;SDS011;43467;50.890;5.982;2022-12-29T11:28:30;11.20;;;1.85;;
36233;SDS011;43467;50.890;5.982;2022-12-29T11:31:01;8.73;;;2.15;;
36233;SDS011;43467;50.890;5.982;2022-12-29T11:33:29;10.63;;;2.03;;
36233;SDS011;43467;50.890;5.982;2022-12-29T11:35:58;10.05;;;2.20;;
36233;SDS011;43467;50.890;5.982;2022-12-29T11:38:42;6.72;;;2.00;;
36233;SDS011;43467;50.890;5.982;2022-12-29T11:41:18;6.28;;;1.83;;
36233;SDS011;43467;50.890;5.982;2022-12-29T11:43:45;11.77;;;2.28;;
36233;SDS011;43467;50.890;5.982;2022-12-29T11:46:34;9.95;;;2.30;;
36233;SDS011;43467;50.890;5.982;2022-12-29T11:48:59;6.38;;;2.28;;
36233;SDS011;43467;50.890;5.982;2022-12-29T11:53:55;10.88;;;1.88;;
36233;SDS011;43467;50.890;5.982;2022-12-29T11:56:32;5.90;;;1.83;;
36233;SDS011;43467;50.890;5.982;2022-12-29T12:01:52;8.68;;;2.08;;
36233;SDS011;43467;50.890;5.982;2022-12-29T12:04:18;9.82;;;2.20;;
36233;SDS011;43467;50.890;5.982;2022-12-29T12:06:48;10.77;;;1.98;;
36233;SDS011;43467;50.890;5.982;2022-12-29T12:09:24;8.50;;;2.33;;
36233;SDS011;43467;50.890;5.982;2022-12-29T12:11:54;6.63;;;1.83;;
36233;SDS011;43467;50.890;5.982;2022-12-29T12:14:27;8.52;;;2.03;;
36233;SDS011;43467;50.890;5.982;2022-12-29T12:17:09;8.88;;;1.90;;
36233;SDS011;43467;50.890;5.982;2022-12-29T12:22:29;10.10;;;2.17;;
36233;SDS011;43467;50.890;5.982;2022-12-29T12:25:02;9.80;;;2.13;;
36233;SDS011;43467;50.890;5.982;2022-12-29T12:27:39;9.57;;;2.50;;
36233;SDS011;43467;50.890;5.982;2022-12-29T12:30:19;8.98;;;1.95;;
36233;SDS011;43467;50.890;5.982;2022-12-29T12:38:31;10.20;;;2.28;;
36233;SDS011;43467;50.890;5.982;2022-12-29T12:41:11;7.65;;;1.65;;
36233;SDS011;43467;50.890;5.982;2022-12-29T12:43:46;5.10;;;1.70;;
36233;SDS011;43467;50.890;5.982;2022-12-29T12:57:26;7.05;;;2.58;;
36233;SDS011;43467;50.890;5.982;2022-12-29T13:00:12;7.45;;;2.15;;
36233;SDS011;43467;50.890;5.982;2022-12-29T13:19:11;7.57;;;1.80;;
36233;SDS011;43467;50.890;5.982;2022-12-29T13:21:41;8.10;;;1.98;;
36233;SDS011;43467;50.890;5.982;2022-12-29T13:26:53;7.30;;;2.10;;
36233;SDS011;43467;50.890;5.982;2022-12-29T13:29:30;8.18;;;2.30;;
36233;SDS011;43467;50.890;5.982;2022-12-29T13:38:00;12.88;;;2.50;;
36233;SDS011;43467;50.890;5.982;2022-12-29T13:40:38;6.25;;;1.75;;
36233;SDS011;43467;50.890;5.982;2022-12-29T13:43:08;8.38;;;2.03;;
36233;SDS011;43467;50.890;5.982;2022-12-29T13:45:34;11.05;;;2.83;;
36233;SDS011;43467;50.890;5.982;2022-12-29T13:50:29;8.75;;;2.10;;
36233;SDS011;43467;50.890;5.982;2022-12-29T13:55:46;7.25;;;2.10;;
36233;SDS011;43467;50.890;5.982;2022-12-29T14:03:59;4.32;;;1.50;;
36233;SDS011;43467;50.890;5.982;2022-12-29T14:06:31;8.70;;;2.05;;
36233;SDS011;43467;50.890;5.982;2022-12-29T14:09:04;9.18;;;1.90;;
36233;SDS011;43467;50.890;5.982;2022-12-29T14:14:22;6.68;;;2.35;;
36233;SDS011;43467;50.890;5.982;2022-12-29T14:16:50;8.35;;;2.38;;
36233;SDS011;43467;50.890;5.982;2022-12-29T14:21:55;8.82;;;2.40;;
36233;SDS011;43467;50.890;5.982;2022-12-29T14:24:26;8.95;;;2.15;;
36233;SDS011;43467;50.890;5.982;2022-12-29T14:27:06;9.40;;;2.38;;
36233;SDS011;43467;50.890;5.982;2022-12-29T14:34:54;7.93;;;2.85;;
36233;SDS011;43467;50.890;5.982;2022-12-29T14:37:27;5.60;;;1.92;;
36233;SDS011;43467;50.890;5.982;2022-12-29T14:42:51;7.57;;;2.20;;
36233;SDS011;43467;50.890;5.982;2022-12-29T14:47:45;9.27;;;2.40;;
36233;SDS011;43467;50.890;5.982;2022-12-29T14:53:05;10.82;;;2.67;;
36233;SDS011;43467;50.890;5.982;2022-12-29T14:58:27;9.25;;;2.30;;
36233;SDS011;43467;50.890;5.982;2022-12-29T15:00:55;9.35;;;2.30;;
36233;SDS011;43467;50.890;5.982;2022-12-29T15:03:25;9.75;;;3.47;;
36233;SDS011;43467;50.890;5.982;2022-12-29T15:05:57;6.75;;;2.75;;
36233;SDS011;43467;50.890;5.982;2022-12-29T15:08:33;9.52;;;2.58;;
36233;SDS011;43467;50.890;5.982;2022-12-29T15:13:39;10.10;;;2.40;;
36233;SDS011;43467;50.890;5.982;2022-12-29T15:16:23;17.27;;;3.13;;
36233;SDS011;43467;50.890;5.982;2022-12-29T15:18:51;14.27;;;2.80;;
36233;SDS011;43467;50.890;5.982;2022-12-29T15:21:17;10.30;;;2.72;;
36233;SDS011;43467;50.890;5.982;2022-12-29T15:23:49;9.73;;;2.25;;
36233;SDS011;43467;50.890;5.982;2022-12-29T15:26:15;12.20;;;2.92;;
36233;SDS011;43467;50.890;5.982;2022-12-29T15:28:46;16.48;;;3.55;;
36233;SDS011;43467;50.890;5.982;2022-12-29T15:31:16;12.93;;;3.13;;
36233;SDS011;43467;50.890;5.982;2022-12-29T15:33:48;12.27;;;3.65;;
36233;SDS011;43467;50.890;5.982;2022-12-29T15:36:19;7.00;;;2.38;;
36233;SDS011;43467;50.890;5.982;2022-12-29T15:38:46;11.18;;;3.08;;
36233;SDS011;43467;50.890;5.982;2022-12-29T15:41:25;10.52;;;2.70;;
36233;SDS011;43467;50.890;5.982;2022-12-29T15:47:05;13.00;;;4.50;;
36233;SDS011;43467;50.890;5.982;2022-12-29T15:49:36;11.10;;;2.40;;
36233;SDS011;43467;50.890;5.982;2022-12-29T15:52:06;11.23;;;3.60;;
36233;SDS011;43467;50.890;5.982;2022-12-29T15:54:33;11.05;;;2.60;;
36233;SDS011;43467;50.890;5.982;2022-12-29T15:56:59;15.38;;;5.32;;
36233;SDS011;43467;50.890;5.982;2022-12-29T16:01:55;9.85;;;3.08;;
36233;SDS011;43467;50.890;5.982;2022-12-29T16:04:21;12.18;;;3.55;;
36233;SDS011;43467;50.890;5.982;2022-12-29T16:06:59;15.20;;;2.95;;
36233;SDS011;43467;50.890;5.982;2022-12-29T16:09:30;14.55;;;3.80;;
36233;SDS011;43467;50.890;5.982;2022-12-29T16:12:00;13.27;;;3.40;;
36233;SDS011;43467;50.890;5.982;2022-12-29T16:14:41;14.75;;;3.08;;
36233;SDS011;43467;50.890;5.982;2022-12-29T16:17:12;15.55;;;2.88;;
36233;SDS011;43467;50.890;5.982;2022-12-29T16:19:41;13.23;;;3.60;;
36233;SDS011;43467;50.890;5.982;2022-12-29T16:22:17;14.68;;;2.97;;
36233;SDS011;43467;50.890;5.982;2022-12-29T16:24:54;15.63;;;3.65;;
36233;SDS011;43467;50.890;5.982;2022-12-29T16:27:22;15.40;;;4.05;;
36233;SDS011;43467;50.890;5.982;2022-12-29T16:29:56;14.02;;;3.15;;
36233;SDS011;43467;50.890;5.982;2022-12-29T16:32:31;14.68;;;3.20;;
36233;SDS011;43467;50.890;5.982;2022-12-29T16:35:16;15.55;;;3.63;;
36233;SDS011;43467;50.890;5.982;2022-12-29T16:37:46;17.58;;;3.72;;
36233;SDS011;43467;50.890;5.982;2022-12-29T16:40:33;14.50;;;4.28;;
36233;SDS011;43467;50.890;5.982;2022-12-29T16:42:59;13.55;;;5.07;;
36233;SDS011;43467;50.890;5.982;2022-12-29T16:51:15;18.80;;;5.18;;
36233;SDS011;43467;50.890;5.982;2022-12-29T16:53:47;19.38;;;4.50;;
36233;SDS011;43467;50.890;5.982;2022-12-29T16:56:15;16.58;;;4.05;;
36233;SDS011;43467;50.890;5.982;2022-12-29T16:58:50;14.82;;;3.50;;
36233;SDS011;43467;50.890;5.982;2022-12-29T17:01:21;16.52;;;4.20;;
36233;SDS011;43467;50.890;5.982;2022-12-29T17:03:53;22.58;;;5.20;;
36233;SDS011;43467;50.890;5.982;2022-12-29T17:06:22;17.58;;;4.50;;
36233;SDS011;43467;50.890;5.982;2022-12-29T17:08:48;16.77;;;4.43;;
36233;SDS011;43467;50.890;5.982;2022-12-29T17:11:22;12.88;;;3.75;;
36233;SDS011;43467;50.890;5.982;2022-12-29T17:17:05;11.40;;;3.53;;
36233;SDS011;43467;50.890;5.982;2022-12-29T17:19:37;19.67;;;4.90;;
36233;SDS011;43467;50.890;5.982;2022-12-29T17:22:14;13.45;;;3.65;;
36233;SDS011;43467;50.890;5.982;2022-12-29T17:24:42;20.73;;;4.25;;
36233;SDS011;43467;50.890;5.982;2022-12-29T17:27:09;14.05;;;3.80;;
36233;SDS011;43467;50.890;5.982;2022-12-29T17:29:45;15.45;;;4.82;;
36233;SDS011;43467;50.890;5.982;2022-12-29T17:32:12;17.77;;;4.00;;
36233;SDS011;43467;50.890;5.982;2022-12-29T17:34:38;17.60;;;4.22;;
36233;SDS011;43467;50.890;5.982;2022-12-29T17:39:45;17.55;;;4.45;;
36233;SDS011;43467;50.890;5.982;2022-12-29T17:42:11;23.48;;;3.97;;
36233;SDS011;43467;50.890;5.982;2022-12-29T17:44:36;13.02;;;3.40;;